עמוד ראשי
METAR-TAF:

METAR-TAF

שדות תעופה :

Alamogordo, ניו מקסיקו, ארצות הברית

קו רוחב: 32-50N, קו אורך: 105-59W, גובה: 1279מטר

תצפית מזג אוויר נוכחית

הדו"ח נערך לפני 34דקות, בשעה 12:55 UTC
רוח רגועה
טמפרטורת 15 צלסיוס
לחות 51%
לחץ 1026 hPa
ראות: 16.1קילומטר
שמיים נקיים

METAR: KALM 251255Z AUTO 00000KT 10SM CLR 15/05 A3029 RMK AO2

זמן: 07:29 (13:29 UTC)


TAF: חסר

תצפיות ותחזיות מזג אוויר לגבי יותר מ- 4,000 שדות תעופה ברחבי העולם. דוחות METAR ו- TAF.

התחנות הזמינות מסומנות בנקודות צהובות ואדומות על גבי המפה.

העבר את העכבר לנקודה הצבעונית על מנת לראות את שם התחנה.

לאחר מכן, לחץ כדי לראות את תוכן ואת תחזיות מזג האוויר.

כדי לשנות את המפה: לחץ על הכפתורים הירוקים עם הפלוס השחור כדי להתקרב; על הכפתור הירוק עם המקף כדי להתרחק; או בחיצים הירוקים למפות סמוכות.


METAR-TAF: